Time;durP1;ratioP1;P1;durP2;ratioP2;P2;SDS_P1;SDS_P2;PMS_P1;PMS_P2;Temp;Humidity;BMP_temperature;BMP_pressure;BME280_temperature;BME280_humidity;BME280_pressure;Samples;Min_cycle;Max_cycle;Signal;HPM_P1;HPM_P2
2022/09/04 00:00:06;;;;;;;5.33;2.53;;;13.10;99.90;;;;;;4116550;28;20487;-62
2022/09/04 00:02:19;;;;;;;3.08;2.38;;;13.10;99.90;;;;;;4116538;28;20086;-62
2022/09/04 00:04:59;;;;;;;5.43;2.47;;;13.10;99.90;;;;;;4117445;28;20503;-63
2022/09/04 00:07:12;;;;;;;6.47;2.13;;;13.10;99.90;;;;;;4113054;28;20043;-62
2022/09/04 00:09:30;;;;;;;4.80;2.13;;;13.10;99.90;;;;;;4117683;28;20090;-63
2022/09/04 00:11:43;;;;;;;7.93;2.40;;;13.10;99.90;;;;;;4116321;28;20034;-63
2022/09/04 00:14:09;;;;;;;3.23;1.87;;;13.00;99.90;;;;;;4117309;28;20150;-64
2022/09/04 00:16:21;;;;;;;2.50;2.03;;;13.00;99.90;;;;;;4116228;28;20031;-63
2022/09/04 00:18:24;;;;;;;4.37;2.20;;;13.00;99.90;;;;;;4117499;28;20365;-63
2022/09/04 00:20:44;;;;;;;9.93;2.57;;;12.90;99.90;;;;;;4116168;28;20027;-63
2022/09/04 00:23:17;;;;;;;3.75;2.13;;;12.90;99.90;;;;;;4117330;28;20077;-62
2022/09/04 00:25:31;;;;;;;9.47;2.50;;;12.90;99.90;;;;;;4115870;28;20035;-64
2022/09/04 00:27:43;;;;;;;5.93;2.43;;;12.90;99.90;;;;;;4117184;28;20039;-64
2022/09/04 00:29:49;;;;;;;3.67;2.50;;;12.80;99.90;;;;;;4116249;28;20043;-63
2022/09/04 00:31:58;;;;;;;5.83;2.33;;;12.80;99.90;;;;;;4116864;28;20085;-62
2022/09/04 00:34:28;;;;;;;3.00;2.30;;;12.70;99.90;;;;;;4116250;28;20097;-63
2022/09/04 00:36:30;;;;;;;3.67;2.47;;;12.70;99.90;;;;;;4116104;28;20273;-62
2022/09/04 00:38:39;;;;;;;5.73;2.13;;;12.70;99.90;;;;;;4116218;28;20419;-65
2022/09/04 00:40:43;;;;;;;7.18;2.72;;;12.60;99.90;;;;;;4117061;28;20026;-63
2022/09/04 00:43:18;;;;;;;3.20;2.43;;;12.60;99.90;;;;;;4116354;28;20035;-65
2022/09/04 00:45:45;;;;;;;3.83;2.53;;;12.60;99.90;;;;;;4116037;28;20072;-63
2022/09/04 00:47:58;;;;;;;3.60;2.60;;;12.60;99.90;;;;;;4117094;28;20073;-63
2022/09/04 00:50:06;;;;;;;4.73;2.20;;;12.60;99.90;;;;;;4115944;28;20066;-63
2022/09/04 00:52:38;;;;;;;5.83;2.00;;;12.60;99.90;;;;;;4115670;28;20160;-63
2022/09/04 00:55:27;;;;;;;8.23;2.87;;;12.60;99.90;;;;;;4114684;28;20089;-63
2022/09/04 00:57:56;;;;;;;3.27;2.53;;;12.60;99.90;;;;;;4096437;29;20043;-66
2022/09/04 01:00:11;;;;;;;3.93;2.60;;;12.50;99.90;;;;;;4112333;28;20046;-62
2022/09/04 01:02:40;;;;;;;3.03;1.83;;;12.60;99.90;;;;;;4112918;28;20102;-63
2022/09/04 01:04:57;;;;;;;5.97;2.27;;;12.50;99.90;;;;;;4113999;28;20022;-63
2022/09/04 01:07:30;;;;;;;2.53;2.30;;;12.50;99.90;;;;;;4113390;28;20077;-63
2022/09/04 01:09:40;;;;;;;2.73;1.73;;;12.50;99.90;;;;;;4114428;28;20423;-64
2022/09/04 01:11:56;;;;;;;6.82;2.08;;;12.50;99.90;;;;;;4113516;28;20089;-64
2022/09/04 01:14:25;;;;;;;3.23;2.00;;;12.50;99.90;;;;;;4114214;28;20027;-63
2022/09/04 01:17:12;;;;;;;3.17;2.30;;;12.50;99.90;;;;;;4113017;28;20419;-63
2022/09/04 01:19:45;;;;;;;2.90;2.10;;;12.40;99.90;;;;;;4109970;28;20436;-64
2022/09/04 01:21:58;;;;;;;2.97;1.77;;;12.40;99.90;;;;;;4113332;28;20135;-63
2022/09/04 01:24:36;;;;;;;2.57;2.00;;;12.30;99.90;;;;;;4113522;28;20304;-63
2022/09/04 01:27:01;;;;;;;1.70;1.60;;;12.30;99.90;;;;;;4114069;28;20380;-63
2022/09/04 01:29:14;;;;;;;1.70;1.60;;;12.30;99.90;;;;;;4112626;28;20582;-63
2022/09/04 01:31:21;;;;;;;3.00;1.90;;;12.20;99.90;;;;;;4114099;28;20038;-63
2022/09/04 01:33:26;;;;;;;2.83;1.50;;;12.20;99.90;;;;;;4113033;28;20076;-63
2022/09/04 01:35:40;;;;;;;3.20;2.10;;;12.20;99.90;;;;;;4113981;28;20081;-63
2022/09/04 01:37:47;;;;;;;3.03;1.83;;;12.10;99.90;;;;;;4112770;28;20038;-64
2022/09/04 01:40:07;;;;;;;1.70;1.43;;;12.10;99.90;;;;;;4113813;28;20043;-63
2022/09/04 01:42:17;;;;;;;3.67;1.80;;;12.10;99.90;;;;;;4112976;28;20089;-62
2022/09/04 01:44:18;;;;;;;1.53;1.43;;;12.10;99.90;;;;;;4113582;28;20035;-63
2022/09/04 01:46:41;;;;;;;2.60;1.37;;;12.10;99.90;;;;;;4112343;28;20593;-63
2022/09/04 01:49:06;;;;;;;1.40;1.30;;;12.10;99.90;;;;;;4114168;28;20054;-63
2022/09/04 01:51:51;;;;;;;2.93;1.63;;;12.10;99.90;;;;;;4112623;28;20027;-64
2022/09/04 01:54:28;;;;;;;1.87;1.77;;;12.20;99.90;;;;;;4113632;28;20046;-63
2022/09/04 01:57:14;;;;;;;5.37;2.37;;;12.10;99.90;;;;;;4113009;28;20026;-64
2022/09/04 01:59:45;;;;;;;2.93;1.60;;;12.00;99.90;;;;;;4112396;28;20089;-63
2022/09/04 02:01:54;;;;;;;2.70;1.60;;;11.80;99.90;;;;;;4113762;28;20027;-63
2022/09/04 02:04:13;;;;;;;1.83;1.50;;;11.80;99.90;;;;;;4112314;28;20399;-63
2022/09/04 02:06:51;;;;;;;1.87;1.73;;;11.70;99.90;;;;;;4113093;28;20269;-63
2022/09/04 02:09:31;;;;;;;3.27;2.10;;;11.70;99.90;;;;;;4112309;28;20093;-63
2022/09/04 02:11:32;;;;;;;2.13;1.80;;;11.70;99.90;;;;;;4097248;28;20552;-63
2022/09/04 02:13:46;;;;;;;1.90;1.70;;;11.70;99.90;;;;;;4112172;28;20868;-62
2022/09/04 02:16:20;;;;;;;4.10;1.57;;;11.70;99.90;;;;;;4112922;28;20062;-64
2022/09/04 02:18:43;;;;;;;2.13;1.50;;;11.70;99.90;;;;;;4113012;28;20101;-63
2022/09/04 02:20:55;;;;;;;3.00;1.60;;;11.70;99.90;;;;;;4108339;28;20046;-63
2022/09/04 02:23:20;;;;;;;4.17;1.83;;;11.70;99.90;;;;;;4113353;28;20034;-63
2022/09/04 02:25:27;;;;;;;3.60;1.60;;;11.70;99.90;;;;;;4112025;28;20038;-62
2022/09/04 02:27:40;;;;;;;2.03;1.60;;;11.70;99.90;;;;;;4113270;28;20031;-62
2022/09/04 02:29:56;;;;;;;2.07;1.77;;;11.70;99.90;;;;;;4111799;28;20034;-63
2022/09/04 02:32:19;;;;;;;1.73;1.63;;;11.60;99.90;;;;;;4112992;28;20034;-66
2022/09/04 02:34:43;;;;;;;4.13;1.83;;;11.70;99.90;;;;;;4111900;28;20097;-62
2022/09/04 02:37:11;;;;;;;3.57;1.60;;;11.70;99.90;;;;;;4113231;28;20337;-65
2022/09/04 02:39:59;;;;;;;1.43;1.33;;;11.70;99.90;;;;;;4111884;28;20090;-63
2022/09/04 02:42:31;;;;;;;2.27;1.87;;;11.60;99.90;;;;;;4094336;29;20051;-62
2022/09/04 02:44:56;;;;;;;3.83;1.40;;;11.60;99.90;;;;;;4110195;28;20051;-63
2022/09/04 02:47:23;;;;;;;1.80;1.70;;;11.60;99.90;;;;;;4111776;28;20034;-63
2022/09/04 02:49:52;;;;;;;1.67;1.40;;;11.50;99.90;;;;;;4112861;28;20101;-62
2022/09/04 02:52:26;;;;;;;2.53;1.90;;;11.50;99.90;;;;;;4111555;28;20578;-63
2022/09/04 02:54:43;;;;;;;3.43;1.57;;;11.40;99.90;;;;;;4111565;28;20462;-63
2022/09/04 02:57:20;;;;;;;1.40;1.30;;;11.40;99.90;;;;;;4111666;28;20027;-62
2022/09/04 02:59:49;;;;;;;1.37;1.17;;;11.50;99.90;;;;;;4110029;28;20043;-62
2022/09/04 03:02:03;;;;;;;2.33;1.50;;;11.50;99.90;;;;;;4112664;28;20097;-64
2022/09/04 03:04:07;;;;;;;2.63;1.70;;;11.50;99.90;;;;;;4111854;28;20050;-64
2022/09/04 03:06:12;;;;;;;2.07;1.77;;;11.50;99.90;;;;;;4112607;28;20038;-63
2022/09/04 03:08:22;;;;;;;2.20;1.23;;;11.50;99.90;;;;;;4111966;28;20098;-63
2022/09/04 03:10:29;;;;;;;;;;;11.40;99.90;;;;;;4113041;28;20047;-63
2022/09/04 03:12:37;;;;;;;2.13;1.80;;;11.40;99.90;;;;;;4112097;28;19922;-63
2022/09/04 03:14:50;;;;;;;4.13;1.80;;;11.40;99.90;;;;;;4112131;28;20042;-63
2022/09/04 03:17:00;;;;;;;3.27;1.60;;;11.30;99.90;;;;;;4111478;28;20039;-63
2022/09/04 03:19:49;;;;;;;1.70;1.60;;;11.30;99.90;;;;;;4112248;28;20046;-63
2022/09/04 03:22:19;;;;;;;5.03;1.37;;;11.30;99.90;;;;;;4106509;28;20512;-64
2022/09/04 03:24:56;;;;;;;1.77;1.67;;;11.30;99.90;;;;;;4109426;28;20082;-64
2022/09/04 03:27:03;;;;;;;5.23;1.73;;;11.30;99.90;;;;;;4111323;28;20027;-63
2022/09/04 03:29:36;;;;;;;3.57;1.67;;;11.20;99.90;;;;;;4112054;28;20414;-64
2022/09/04 03:31:46;;;;;;;3.33;1.90;;;11.20;99.90;;;;;;4111601;28;20019;-63
2022/09/04 03:33:57;;;;;;;1.60;1.50;;;11.20;99.90;;;;;;4111533;28;20439;-67
2022/09/04 03:36:06;;;;;;;4.60;2.30;;;11.10;99.90;;;;;;4111915;28;20050;-63
2022/09/04 03:38:19;;;;;;;2.37;1.50;;;11.20;99.90;;;;;;4111719;28;20435;-64
2022/09/04 03:40:29;;;;;;;2.80;2.00;;;11.10;99.90;;;;;;4111652;28;20031;-65
2022/09/04 03:42:54;;;;;;;4.97;1.90;;;11.10;99.90;;;;;;4111843;28;20027;-63
2022/09/04 03:45:19;;;;;;;2.53;2.00;;;11.20;99.90;;;;;;4112240;28;20117;-64
2022/09/04 03:47:37;;;;;;;2.57;1.80;;;11.10;99.90;;;;;;4111337;28;20808;-62
2022/09/04 03:49:50;;;;;;;4.23;1.83;;;11.10;99.90;;;;;;4112086;28;20031;-63
2022/09/04 03:52:31;;;;;;;1.60;1.47;;;11.10;99.90;;;;;;4111054;28;20105;-62
2022/09/04 03:55:10;;;;;;;2.20;2.00;;;11.20;99.90;;;;;;4112269;28;20101;-62
2022/09/04 03:57:34;;;;;;;1.53;1.43;;;11.10;99.90;;;;;;4111225;28;20043;-61
2022/09/04 03:59:55;;;;;;;4.70;2.00;;;11.20;99.90;;;;;;4111811;28;20098;-62
2022/09/04 04:02:05;;;;;;;2.97;1.60;;;11.20;99.90;;;;;;4111630;28;20116;-62
2022/09/04 04:04:33;;;;;;;1.75;1.65;;;11.20;99.90;;;;;;4111380;28;20487;-62
2022/09/04 04:06:44;;;;;;;2.37;1.70;;;11.20;99.90;;;;;;4111953;28;20019;-62
2022/09/04 04:08:50;;;;;;;2.37;1.70;;;11.40;99.90;;;;;;4111068;28;20029;-62
2022/09/04 04:11:14;;;;;;;6.40;1.83;;;11.70;99.90;;;;;;4111928;28;20035;-62
2022/09/04 04:13:36;;;;;;;3.20;1.30;;;12.00;99.90;;;;;;4111122;28;20038;-62
2022/09/04 04:16:15;;;;;;;5.23;1.93;;;12.40;99.90;;;;;;4111855;28;20030;-62
2022/09/04 04:18:38;;;;;;;2.97;1.50;;;12.70;99.90;;;;;;4109537;28;20447;-62
2022/09/04 04:20:46;;;;;;;2.00;1.20;;;13.10;99.90;;;;;;4111810;28;20078;-62
2022/09/04 04:22:47;;;;;;;4.33;1.10;;;13.50;99.90;;;;;;4110748;28;20541;-62
2022/09/04 04:25:01;;;;;;;1.90;1.30;;;13.80;99.90;;;;;;4111924;28;20023;-62
2022/09/04 04:27:36;;;;;;;4.97;1.37;;;14.20;99.90;;;;;;4110615;28;20435;-62
2022/09/04 04:29:49;;;;;;;1.40;1.30;;;14.50;99.90;;;;;;4111479;28;20026;-62
2022/09/04 04:32:23;;;;;;;3.75;1.00;;;15.00;99.90;;;;;;4113984;28;20090;-63
2022/09/04 04:34:38;;;;;;;4.38;2.00;;;15.70;99.90;;;;;;4114197;28;20063;-62
2022/09/04 04:36:55;;;;;;;3.70;1.00;;;16.10;99.90;;;;;;4114483;28;20109;-64
2022/09/04 04:39:10;;;;;;;3.35;0.70;;;16.30;99.90;;;;;;4113827;28;20026;-64
2022/09/04 04:45:48;;;;;;;2.65;0.98;;;16.70;99.90;;;;;;4114002;28;20030;-63
2022/09/04 04:47:15;;;;;;;3.05;1.27;;;16.90;99.90;;;;;;4114474;28;20105;-63
2022/09/04 04:49:36;;;;;;;4.15;1.20;;;17.50;99.90;;;;;;4113575;28;20086;-63
2022/09/04 04:51:55;;;;;;;;;;;18.10;99.90;;;;;;4114527;28;20069;-64
2022/09/04 04:54:12;;;;;;;1.60;1.02;;;18.60;99.90;;;;;;4114021;28;19918;-63
2022/09/04 04:56:32;;;;;;;3.00;0.70;;;19.00;99.90;;;;;;4113415;28;20456;-63
2022/09/04 04:59:22;;;;;;;2.17;0.85;;;19.30;99.90;;;;;;4114283;28;20415;-64
2022/09/04 05:01:51;;;;;;;3.22;1.10;;;19.90;99.90;;;;;;4095133;29;20127;-63
2022/09/04 05:04:18;;;;;;;2.97;1.48;;;20.50;99.90;;;;;;4112346;28;20039;-65
2022/09/04 05:06:44;;;;;;;2.15;0.77;;;21.00;99.90;;;;;;4113267;28;20039;-63
2022/09/04 05:08:54;;;;;;;1.55;0.80;;;21.20;99.90;;;;;;4116177;28;20045;-66
2022/09/04 05:10:59;;;;;;;;;;;21.40;99.90;;;;;;4132328;28;20030;-61
2022/09/04 05:13:39;;;;;;;4.47;0.63;;;21.00;99.90;;;;;;4146540;28;19964;-63
2022/09/04 05:15:46;;;;;;;2.97;0.85;;;21.20;99.90;;;;;;4131407;28;20364;-66
2022/09/04 05:18:03;;;;;;;3.50;0.82;;;21.30;99.90;;;;;;4129191;28;20471;-63
2022/09/04 05:20:45;;;;;;;2.40;0.88;;;21.50;99.90;;;;;;4129832;28;20502;-68
2022/09/04 05:23:08;;;;;;;3.42;1.23;;;21.70;99.90;;;;;;4128524;28;20532;-64
2022/09/04 05:25:16;;;;;;;1.00;0.90;;;22.40;99.90;;;;;;4130068;28;20034;-63
2022/09/04 05:27:47;;;;;;;2.72;1.30;;;23.00;99.90;;;;;;4139246;28;20037;-64
2022/09/04 05:30:02;;;;;;;3.65;0.75;;;23.80;99.90;;;;;;4138867;28;20463;-64
2022/09/04 05:32:19;;;;;;;1.55;1.00;;;24.30;99.90;;;;;;4136184;28;20042;-67
2022/09/04 05:34:56;;;;;;;1.23;1.00;;;24.30;99.90;;;;;;4134563;28;20038;-64
2022/09/04 05:37:06;;;;;;;4.28;0.93;;;24.60;99.30;;;;;;4127879;28;20026;-63
2022/09/04 05:39:32;;;;;;;2.90;0.80;;;24.90;99.90;;;;;;4129245;28;20549;-63
2022/09/04 05:41:48;;;;;;;6.35;0.70;;;25.20;99.30;;;;;;4128542;28;20071;-62
2022/09/04 05:43:58;;;;;;;6.13;1.05;;;25.30;98.20;;;;;;4129240;28;20038;-62
2022/09/04 05:46:29;;;;;;;1.52;0.70;;;25.30;98.50;;;;;;4127532;28;20101;-63
2022/09/04 05:48:52;;;;;;;2.88;1.17;;;25.20;97.00;;;;;;4127396;28;20105;-63
2022/09/04 05:50:53;;;;;;;4.05;1.20;;;25.10;98.40;;;;;;4129840;28;20035;-63
2022/09/04 05:53:06;;;;;;;4.20;1.35;;;24.60;98.80;;;;;;4127453;28;20102;-63
2022/09/04 05:55:55;;;;;;;5.90;1.80;;;24.50;98.50;;;;;;4128655;28;20034;-63
2022/09/04 05:58:11;;;;;;;6.00;2.92;;;23.60;98.50;;;;;;4078583;29;20043;-63
2022/09/04 06:00:18;;;;;;;4.35;1.40;;;22.90;99.90;;;;;;4129621;28;20038;-63
2022/09/04 06:02:31;;;;;;;4.05;1.85;;;22.30;99.90;;;;;;4126325;28;20076;-64
2022/09/04 06:04:47;;;;;;;5.63;3.00;;;21.80;99.90;;;;;;4129514;28;20037;-63
2022/09/04 06:07:27;;;;;;;11.77;7.60;;;21.90;99.90;;;;;;4128179;28;20034;-64
2022/09/04 06:09:44;;;;;;;7.80;2.78;;;21.70;99.90;;;;;;4128407;28;20525;-63
2022/09/04 06:11:54;;;;;;;6.88;4.50;;;21.40;99.90;;;;;;4128977;28;20023;-63
2022/09/04 06:14:17;;;;;;;5.88;3.15;;;20.90;99.90;;;;;;4128677;28;20042;-64
2022/09/04 06:16:49;;;;;;;5.13;2.80;;;20.40;99.90;;;;;;4128292;28;20108;-64
2022/09/04 06:19:17;;;;;;;6.15;3.50;;;20.20;99.90;;;;;;4128059;28;20372;-63
2022/09/04 06:21:47;;;;;;;4.13;2.80;;;20.20;99.90;;;;;;4129195;28;20030;-63
2022/09/04 06:24:02;;;;;;;4.53;2.97;;;19.90;99.90;;;;;;4126923;28;20038;-65
2022/09/04 06:26:40;;;;;;;6.82;3.13;;;19.80;99.90;;;;;;4126479;28;20034;-64
2022/09/04 06:29:09;;;;;;;9.20;3.95;;;20.00;99.90;;;;;;4128017;28;20030;-63
2022/09/04 06:31:19;;;;;;;5.43;3.50;;;19.80;99.90;;;;;;4126663;28;20046;-62
2022/09/04 06:34:02;;;;;;;4.72;3.03;;;19.40;99.90;;;;;;4128180;28;20086;-62
2022/09/04 06:36:37;;;;;;;7.18;4.38;;;19.20;99.90;;;;;;4127807;28;20549;-62
2022/09/04 06:39:06;;;;;;;8.75;3.75;;;19.00;99.90;;;;;;4105647;28;20043;-64
2022/09/04 06:41:44;;;;;;;6.65;3.80;;;18.90;99.90;;;;;;4111733;28;20086;-65
2022/09/04 06:44:02;;;;;;;5.20;3.97;;;19.00;99.90;;;;;;4111576;28;20093;-63
2022/09/04 06:46:38;;;;;;;8.20;3.50;;;18.90;99.90;;;;;;4111653;28;20054;-69
2022/09/04 06:48:39;;;;;;;7.80;3.58;;;19.00;99.90;;;;;;4096552;28;20035;-63
2022/09/04 06:51:09;;;;;;;7.10;3.50;;;18.80;99.90;;;;;;4141568;28;20042;-69
2022/09/04 06:53:17;;;;;;;4.60;4.00;;;18.60;99.90;;;;;;4126881;28;20811;-62
2022/09/04 06:55:32;;;;;;;8.82;3.33;;;18.30;99.90;;;;;;4128442;28;20026;-62
2022/09/04 06:57:53;;;;;;;4.80;3.05;;;18.20;99.90;;;;;;4127872;28;20117;-66
2022/09/04 07:00:00;;;;;;;3.97;3.15;;;18.20;99.90;;;;;;4128200;28;20027;-64
2022/09/04 07:02:43;;;;;;;5.45;3.42;;;18.20;99.90;;;;;;4127354;28;20387;-63
2022/09/04 07:04:56;;;;;;;5.25;3.67;;;18.30;99.90;;;;;;4128656;28;20506;-63
2022/09/04 07:07:09;;;;;;;5.85;3.22;;;18.50;99.90;;;;;;4127195;28;20958;-68
2022/09/04 07:09:21;;;;;;;6.88;3.45;;;18.70;99.90;;;;;;4128210;28;20042;-64
2022/09/04 07:11:34;;;;;;;7.90;3.20;;;19.00;99.90;;;;;;4127084;28;20061;-63
2022/09/04 07:13:48;;;;;;;6.95;2.70;;;19.00;99.90;;;;;;4128392;28;20038;-62
2022/09/04 07:16:04;;;;;;;8.32;3.20;;;18.70;99.90;;;;;;4127309;28;20050;-65
2022/09/04 07:18:30;;;;;;;4.90;2.60;;;18.70;99.90;;;;;;4128067;28;20258;-63
2022/09/04 07:20:55;;;;;;;3.40;2.50;;;18.20;99.90;;;;;;4126905;28;20426;-63
2022/09/04 07:23:31;;;;;;;2.50;2.30;;;18.20;99.90;;;;;;4127536;28;20026;-62
2022/09/04 07:25:58;;;;;;;5.25;2.90;;;18.40;99.90;;;;;;4126834;28;20065;-64
2022/09/04 07:28:17;;;;;;;6.07;2.88;;;18.40;99.90;;;;;;4124702;28;20458;-62
2022/09/04 07:30:19;;;;;;;4.72;2.72;;;18.40;99.90;;;;;;4125116;28;20038;-64
2022/09/04 07:32:39;;;;;;;6.57;2.92;;;18.40;99.90;;;;;;4125977;28;20030;-63
2022/09/04 07:34:55;;;;;;;3.38;2.95;;;18.40;99.90;;;;;;4126043;28;20042;-63
2022/09/04 07:37:28;;;;;;;4.00;3.00;;;18.20;99.90;;;;;;4125528;28;20077;-65
2022/09/04 07:39:54;;;;;;;3.60;2.58;;;18.20;99.90;;;;;;4128294;28;20046;-63
2022/09/04 07:42:24;;;;;;;3.17;2.35;;;18.20;99.90;;;;;;4126085;28;20421;-63
2022/09/04 07:44:40;;;;;;;4.65;2.38;;;18.50;99.90;;;;;;4120197;28;20129;-63
2022/09/04 07:47:12;;;;;;;26.00;4.65;;;18.50;99.90;;;;;;4127584;28;20173;-63
2022/09/04 07:49:41;;;;;;;3.15;2.33;;;18.30;99.90;;;;;;4120470;28;20500;-62
2022/09/04 07:51:52;;;;;;;4.22;2.63;;;18.30;99.90;;;;;;4111819;28;20117;-66
2022/09/04 07:53:59;;;;;;;5.00;2.50;;;18.10;99.90;;;;;;4109293;28;20085;-63
2022/09/04 07:56:15;;;;;;;2.53;2.33;;;17.90;99.90;;;;;;4116112;28;20170;-63
2022/09/04 07:58:44;;;;;;;5.28;2.30;;;17.90;99.90;;;;;;4125507;28;20104;-63
2022/09/04 08:00:51;;;;;;;2.70;2.50;;;17.90;99.90;;;;;;4121360;28;20096;-63
2022/09/04 08:03:15;;;;;;;3.63;2.30;;;18.20;99.90;;;;;;4125513;28;20089;-62
2022/09/04 08:05:32;;;;;;;3.10;2.35;;;18.30;99.90;;;;;;4129517;28;20035;-65
2022/09/04 08:07:33;;;;;;;6.05;2.20;;;18.40;99.90;;;;;;4129642;28;20034;-66
2022/09/04 08:10:02;;;;;;;2.60;2.40;;;18.40;99.90;;;;;;4131045;28;20030;-65
2022/09/04 08:12:45;;;;;;;2.92;2.40;;;18.50;99.90;;;;;;4128861;28;20034;-65
2022/09/04 08:14:55;;;;;;;3.80;2.67;;;18.40;99.90;;;;;;4130552;28;20042;-65
2022/09/04 08:17:42;;;;;;;2.13;2.03;;;18.40;99.90;;;;;;4129116;28;20042;-66
2022/09/04 08:20:09;;;;;;;6.28;2.85;;;18.40;99.90;;;;;;4109974;28;20090;-65
2022/09/04 08:22:16;;;;;;;2.00;1.90;;;18.70;99.90;;;;;;4110607;28;20721;-65
2022/09/04 08:25:01;;;;;;;4.53;2.53;;;18.70;99.90;;;;;;4115146;28;20077;-65
2022/09/04 08:27:20;;;;;;;3.05;2.75;;;18.80;99.90;;;;;;4120105;28;20030;-63
2022/09/04 08:29:40;;;;;;;4.05;2.65;;;18.70;99.90;;;;;;4129352;28;20112;-63
2022/09/04 08:32:04;;;;;;;3.00;2.70;;;18.80;99.90;;;;;;4128787;28;20039;-65
2022/09/04 08:34:43;;;;;;;8.20;3.60;;;19.00;99.90;;;;;;4128172;28;20043;-63
2022/09/04 08:36:53;;;;;;;4.63;3.35;;;19.00;99.90;;;;;;4128652;28;20035;-62
2022/09/04 08:39:07;;;;;;;4.95;3.20;;;19.00;99.90;;;;;;4130395;28;20120;-63
2022/09/04 08:41:41;;;;;;;3.95;3.10;;;19.10;99.90;;;;;;4129733;28;20414;-61
2022/09/04 08:43:52;;;;;;;4.90;3.05;;;19.00;99.90;;;;;;4122003;28;20034;-63
2022/09/04 08:46:22;;;;;;;3.40;3.10;;;19.10;99.90;;;;;;4129009;28;20054;-61
2022/09/04 08:48:45;;;;;;;3.00;2.80;;;19.10;99.90;;;;;;4130526;28;20038;-64
2022/09/04 08:51:25;;;;;;;2.65;2.45;;;19.30;99.90;;;;;;4129160;28;20022;-62
2022/09/04 08:54:19;;;;;;;2.13;1.92;;;19.40;99.90;;;;;;4112142;28;20466;-63
2022/09/04 08:57:05;;;;;;;2.70;2.50;;;19.50;99.90;;;;;;4097676;28;20074;-63
2022/09/04 08:59:33;;;;;;;5.43;2.13;;;19.50;99.90;;;;;;4109086;28;20129;-62
2022/09/04 09:02:08;;;;;;;3.30;2.40;;;19.50;99.90;;;;;;4128850;28;20483;-63
2022/09/04 09:04:35;;;;;;;3.40;2.17;;;19.70;99.90;;;;;;4129161;28;20026;-63
2022/09/04 09:07:04;;;;;;;3.42;2.45;;;19.80;99.90;;;;;;4129769;28;20627;-63
2022/09/04 09:09:19;;;;;;;3.15;2.35;;;19.80;99.90;;;;;;4129656;28;20031;-65
2022/09/04 09:11:20;;;;;;;2.10;2.00;;;19.80;99.90;;;;;;4129157;28;20034;-63
2022/09/04 09:13:45;;;;;;;2.30;2.10;;;19.70;99.90;;;;;;4129062;28;20085;-63
2022/09/04 09:15:54;;;;;;;3.40;1.90;;;19.70;99.90;;;;;;4128520;28;20549;-63
2022/09/04 09:17:55;;;;;;;1.50;1.40;;;19.70;99.90;;;;;;4129862;28;20109;-62
2022/09/04 09:19:59;;;;;;;3.25;1.60;;;19.80;99.90;;;;;;4129162;28;20081;-64
2022/09/04 09:22:45;;;;;;;1.52;1.42;;;19.90;99.90;;;;;;4129357;28;20027;-63
2022/09/04 09:25:19;;;;;;;1.67;1.50;;;20.20;99.90;;;;;;4111597;28;20535;-63
2022/09/04 09:28:06;;;;;;;2.42;1.42;;;20.60;99.90;;;;;;4129809;28;20432;-62
2022/09/04 09:30:21;;;;;;;4.03;2.00;;;21.00;99.90;;;;;;4116236;28;20042;-63
2022/09/04 09:32:40;;;;;;;2.45;1.40;;;21.00;99.90;;;;;;4129506;28;20442;-63
2022/09/04 09:35:07;;;;;;;1.23;1.13;;;20.90;99.90;;;;;;4128530;28;20089;-62
2022/09/04 09:37:08;;;;;;;1.58;1.23;;;20.80;99.90;;;;;;4128645;28;20026;-63
2022/09/04 09:39:42;;;;;;;1.42;1.00;;;20.80;99.90;;;;;;4128704;28;20034;-62
2022/09/04 09:42:18;;;;;;;1.20;1.00;;;20.90;99.90;;;;;;4110114;28;20035;-62
2022/09/04 09:44:28;;;;;;;1.38;1.00;;;21.30;99.90;;;;;;4129490;28;20034;-62
2022/09/04 09:47:02;;;;;;;5.50;1.02;;;21.50;99.90;;;;;;4127907;28;20034;-62
2022/09/04 09:49:49;;;;;;;1.80;1.00;;;21.20;99.90;;;;;;4128824;28;20042;-63
2022/09/04 09:51:53;;;;;;;1.05;0.95;;;21.00;99.90;;;;;;4128157;28;20565;-64
2022/09/04 09:54:46;;;;;;;1.50;0.95;;;21.20;99.90;;;;;;4128802;28;20089;-64
2022/09/04 09:57:24;;;;;;;0.77;0.77;;;21.20;99.90;;;;;;4128930;28;20121;-61
2022/09/04 09:59:43;;;;;;;1.55;0.85;;;21.30;99.90;;;;;;4127946;28;20047;-63
2022/09/04 10:02:03;;;;;;;1.98;0.73;;;21.60;99.90;;;;;;4128971;28;20112;-62
2022/09/04 10:04:10;;;;;;;1.88;0.80;;;21.80;99.90;;;;;;4128266;28;20097;-64
2022/09/04 10:06:20;;;;;;;1.40;1.10;;;21.70;99.90;;;;;;4129281;28;20042;-62
2022/09/04 10:08:49;;;;;;;0.63;0.63;;;21.50;99.90;;;;;;4127860;28;20445;-61
2022/09/04 10:11:02;;;;;;;0.52;0.52;;;21.40;99.90;;;;;;4129107;28;20034;-63
2022/09/04 10:13:25;;;;;;;1.02;0.60;;;21.20;99.90;;;;;;4127825;28;20085;-63
2022/09/04 10:15:56;;;;;;;1.00;0.65;;;21.20;99.90;;;;;;4129164;28;20085;-63
2022/09/04 10:18:31;;;;;;;1.15;0.80;;;21.40;99.90;;;;;;4128097;28;20072;-63
2022/09/04 10:20:42;;;;;;;1.42;0.57;;;21.40;99.90;;;;;;4127994;28;20427;-64
2022/09/04 10:23:08;;;;;;;;;;;21.20;99.90;;;;;;4128816;28;20034;-63
2022/09/04 10:25:42;;;;;;;0.70;0.70;;;21.00;99.90;;;;;;4127780;28;20346;-63
2022/09/04 10:27:57;;;;;;;1.08;0.63;;;21.10;99.90;;;;;;4127964;28;20043;-64
2022/09/04 10:30:09;;;;;;;0.68;0.68;;;21.30;99.90;;;;;;4127667;28;20479;-62
2022/09/04 10:32:34;;;;;;;0.60;0.57;;;21.60;99.90;;;;;;4129232;28;20073;-63
2022/09/04 10:34:46;;;;;;;2.70;0.57;;;21.50;99.90;;;;;;4121756;28;20097;-61
2022/09/04 10:37:18;;;;;;;0.50;0.50;;;21.50;99.90;;;;;;4128313;28;20099;-64
2022/09/04 10:42:42;;;;;;;0.52;0.52;;;21.30;99.90;;;;;;4111854;28;20087;-61
2022/09/04 10:45:00;;;;;;;0.93;0.50;;;21.10;99.90;;;;;;4111292;28;20109;-66
2022/09/04 10:47:14;;;;;;;1.27;0.60;;;21.20;99.90;;;;;;4111335;28;21004;-67
2022/09/04 10:49:28;;;;;;;0.77;0.50;;;21.30;99.90;;;;;;4112102;28;20085;-65
2022/09/04 10:51:42;;;;;;;0.50;0.50;;;21.30;99.90;;;;;;4111112;28;20086;-65
2022/09/04 10:54:12;;;;;;;1.77;0.98;;;21.30;99.90;;;;;;4132494;28;20112;-65
2022/09/04 10:56:25;;;;;;;1.55;0.93;;;21.30;99.90;;;;;;4127316;28;20023;-66
2022/09/04 10:58:43;;;;;;;1.00;0.77;;;21.10;99.90;;;;;;4128288;28;20097;-65
2022/09/04 11:01:26;;;;;;;1.25;0.82;;;20.90;99.90;;;;;;4127087;28;20030;-64
2022/09/04 11:03:45;;;;;;;2.03;0.55;;;20.70;99.90;;;;;;4127072;28;20096;-65
2022/09/04 11:06:07;;;;;;;1.33;0.75;;;20.70;99.90;;;;;;4126126;28;20031;-65
2022/09/04 11:08:34;;;;;;;0.82;0.55;;;20.60;99.90;;;;;;4126605;28;20686;-64
2022/09/04 11:11:13;;;;;;;0.63;0.63;;;20.80;99.90;;;;;;4127819;28;20084;-63
2022/09/04 11:13:39;;;;;;;30.50;11.65;;;21.00;99.90;;;;;;4126795;28;20026;-64
2022/09/04 11:15:56;;;;;;;1.77;0.60;;;21.20;99.90;;;;;;4128028;28;20104;-63
2022/09/04 11:18:00;;;;;;;1.45;0.95;;;21.30;99.90;;;;;;4126956;28;20422;-65
2022/09/04 11:20:35;;;;;;;0.68;0.43;;;21.40;99.90;;;;;;4127683;28;20026;-64
2022/09/04 11:22:55;;;;;;;2.15;0.60;;;21.50;99.90;;;;;;4126472;28;20085;-64
2022/09/04 11:25:33;;;;;;;0.95;0.47;;;21.40;99.90;;;;;;4127737;28;20089;-61
2022/09/04 11:28:04;;;;;;;0.70;0.60;;;21.20;99.90;;;;;;4127490;28;20081;-62
2022/09/04 11:30:22;;;;;;;0.70;0.70;;;21.40;99.90;;;;;;4138121;28;20029;-70
2022/09/04 11:32:51;;;;;;;0.65;0.60;;;21.50;99.90;;;;;;4144517;28;20883;-66
2022/09/04 11:35:31;;;;;;;0.90;0.70;;;21.60;99.90;;;;;;4132941;28;20108;-65
2022/09/04 11:37:55;;;;;;;0.73;0.70;;;21.50;99.90;;;;;;4127189;28;20023;-65
2022/09/04 11:40:22;;;;;;;0.70;0.40;;;21.30;99.90;;;;;;4126525;28;20085;-64
2022/09/04 11:42:58;;;;;;;0.68;0.68;;;21.40;99.90;;;;;;4123771;28;20046;-65
2022/09/04 11:45:08;;;;;;;1.40;0.35;;;21.30;99.90;;;;;;4127665;28;20050;-64
2022/09/04 11:47:56;;;;;;;2.58;0.55;;;21.40;99.90;;;;;;4126910;28;20038;-65
2022/09/04 11:50:55;;;;;;;1.48;0.60;;;21.40;99.90;;;;;;4127288;28;20031;-66
2022/09/04 11:53:20;;;;;;;0.75;0.57;;;21.60;99.90;;;;;;4091822;28;20201;-66
2022/09/04 11:55:51;;;;;;;0.75;0.60;;;21.70;99.90;;;;;;4123127;28;20042;-66
2022/09/04 11:58:19;;;;;;;1.35;0.60;;;21.70;99.90;;;;;;4108811;28;20058;-64
2022/09/04 12:00:21;;;;;;;5.63;0.60;;;21.90;99.90;;;;;;4126607;28;20031;-66
2022/09/04 12:02:25;;;;;;;0.63;0.60;;;22.20;99.90;;;;;;4127721;28;20399;-66
2022/09/04 12:05:12;;;;;;;3.60;0.73;;;22.40;99.90;;;;;;4126668;28;20100;-67
2022/09/04 12:07:16;;;;;;;1.25;0.80;;;22.20;99.90;;;;;;4127161;28;20031;-65
2022/09/04 12:09:39;;;;;;;0.57;0.57;;;21.90;99.90;;;;;;4127482;28;20067;-65
2022/09/04 12:12:06;;;;;;;0.50;0.40;;;22.00;99.90;;;;;;4127758;28;20038;-69
2022/09/04 12:14:29;;;;;;;0.40;0.40;;;22.10;99.90;;;;;;4116200;28;20112;-65
2022/09/04 12:16:37;;;;;;;1.75;0.50;;;22.00;99.90;;;;;;4127669;28;20844;-63
2022/09/04 12:19:07;;;;;;;2.17;0.63;;;21.90;99.90;;;;;;4126132;28;20034;-65
2022/09/04 12:21:39;;;;;;;2.00;0.50;;;21.80;99.90;;;;;;4111166;28;20027;-65
2022/09/04 12:23:59;;;;;;;0.40;0.40;;;21.70;99.90;;;;;;4110332;28;20077;-67
2022/09/04 12:26:20;;;;;;;0.75;0.50;;;21.70;99.90;;;;;;4110581;28;20039;-66